createdAt,value
2019-01-14T00:02:27.531Z,92.33
2019-01-14T00:04:55.830Z,83.57
2019-01-14T00:07:24.258Z,120.77
2019-01-14T00:09:52.783Z,98.00
2019-01-14T00:12:21.062Z,67.80
2019-01-14T00:14:49.345Z,71.80
2019-01-14T00:17:17.632Z,79.47
2019-01-14T00:19:45.930Z,90.20
2019-01-14T00:22:14.460Z,98.30
2019-01-14T00:24:42.765Z,90.10
2019-01-14T00:27:11.045Z,87.50
2019-01-14T00:29:39.352Z,116.50
2019-01-14T00:32:07.646Z,97.83
2019-01-14T00:34:36.103Z,88.07
2019-01-14T00:37:04.392Z,69.77
2019-01-14T00:39:32.689Z,87.97
2019-01-14T00:42:00.990Z,122.73
2019-01-14T00:44:29.285Z,80.90
2019-01-14T00:46:57.826Z,99.23
2019-01-14T00:49:26.138Z,113.20
2019-01-14T00:51:54.674Z,117.97
2019-01-14T00:54:22.983Z,113.77
2019-01-14T00:56:51.999Z,129.20
2019-01-14T00:59:20.305Z,135.73
2019-01-14T01:01:48.595Z,136.40
2019-01-14T01:04:16.902Z,139.17
2019-01-14T01:06:45.512Z,132.57
2019-01-14T01:09:14.060Z,128.63
2019-01-14T01:11:42.358Z,139.23
2019-01-14T01:14:10.659Z,129.87
2019-01-14T01:16:38.964Z,138.37
2019-01-14T01:19:07.564Z,128.30
2019-01-14T01:21:35.875Z,127.43
2019-01-14T01:24:04.236Z,135.23
2019-01-14T01:26:32.548Z,129.17
2019-01-14T01:29:01.079Z,129.90
2019-01-14T01:31:29.464Z,133.80
2019-01-14T01:33:57.750Z,127.90
2019-01-14T01:36:31.801Z,134.93
2019-01-14T01:38:56.389Z,127.03
2019-01-14T01:41:24.694Z,138.67
2019-01-14T01:43:52.982Z,132.00
2019-01-14T01:46:21.289Z,134.13
2019-01-14T01:48:49.579Z,137.03
2019-01-14T01:51:17.888Z,138.23
2019-01-14T01:53:46.174Z,138.80
2019-01-14T01:56:14.732Z,140.37
2019-01-14T01:58:43.020Z,146.23
2019-01-14T02:01:11.322Z,138.30
2019-01-14T02:03:39.611Z,142.97
2019-01-14T02:06:07.991Z,144.40
2019-01-14T02:08:36.288Z,132.13
2019-01-14T02:11:04.604Z,149.47
2019-01-14T02:13:32.896Z,145.30
2019-01-14T02:16:01.201Z,146.57
2019-01-14T02:18:29.759Z,149.73
2019-01-14T02:20:58.321Z,153.27
2019-01-14T02:23:26.605Z,145.20
2019-01-14T02:25:55.133Z,146.03
2019-01-14T02:28:23.514Z,158.13
2019-01-14T02:30:51.805Z,168.20
2019-01-14T02:33:20.113Z,144.57
2019-01-14T02:35:48.468Z,136.70
2019-01-14T02:38:16.771Z,142.53
2019-01-14T02:40:45.306Z,144.77
2019-01-14T02:43:13.611Z,140.37
2019-01-14T02:45:41.899Z,144.97
2019-01-14T02:48:10.203Z,149.67
2019-01-14T02:50:38.750Z,145.67
2019-01-14T02:53:07.053Z,144.37
2019-01-14T02:55:35.587Z,145.10
2019-01-14T02:58:04.026Z,138.17
2019-01-14T03:00:32.257Z,152.90
2019-01-14T03:03:00.643Z,188.73
2019-01-14T03:05:28.935Z,155.13
2019-01-14T03:07:57.224Z,163.60
2019-01-14T03:10:25.782Z,130.23
2019-01-14T03:12:54.328Z,129.07
2019-01-14T03:15:22.636Z,133.90
2019-01-14T03:17:50.923Z,142.63
2019-01-14T03:20:19.562Z,138.37
2019-01-14T03:22:48.109Z,140.87
2019-01-14T03:25:17.028Z,132.60
2019-01-14T03:27:45.463Z,150.90
2019-01-14T03:30:16.899Z,156.57
2019-01-14T03:32:45.223Z,136.13
2019-01-14T03:35:13.594Z,143.00
2019-01-14T03:37:41.966Z,142.83
2019-01-14T03:40:12.950Z,148.17
2019-01-14T03:42:41.240Z,135.30
2019-01-14T03:45:11.640Z,133.30
2019-01-14T03:47:39.915Z,138.07
2019-01-14T03:50:14.382Z,130.73
2019-01-14T03:52:42.679Z,133.13
2019-01-14T03:55:11.305Z,126.23
2019-01-14T03:57:39.913Z,129.57
2019-01-14T04:00:11.220Z,182.17
2019-01-14T04:02:39.765Z,137.37
2019-01-14T04:05:09.107Z,138.80
2019-01-14T04:07:37.648Z,148.83
2019-01-14T04:10:09.020Z,130.17
2019-01-14T04:12:37.561Z,148.77
2019-01-14T04:15:07.491Z,141.67
2019-01-14T04:17:35.795Z,142.13
2019-01-14T04:20:07.249Z,139.60
2019-01-14T04:22:35.563Z,142.57
2019-01-14T04:25:05.047Z,128.30
2019-01-14T04:27:33.353Z,144.77
2019-01-14T04:30:01.643Z,138.57
2019-01-14T04:32:29.953Z,149.10
2019-01-14T04:34:58.306Z,141.47
2019-01-14T04:37:26.850Z,134.87
2019-01-14T04:39:55.397Z,135.97
2019-01-14T04:42:23.692Z,132.27
2019-01-14T04:44:51.984Z,151.17
2019-01-14T04:47:20.290Z,132.50
2019-01-14T04:49:48.593Z,128.83
2019-01-14T04:52:17.119Z,141.23
2019-01-14T04:54:45.423Z,137.13
2019-01-14T04:57:13.971Z,144.20
2019-01-14T04:59:42.531Z,147.10
2019-01-14T05:02:10.825Z,136.07
2019-01-14T05:04:39.436Z,134.13
2019-01-14T05:07:07.728Z,142.63
2019-01-14T05:09:36.058Z,137.90
2019-01-14T05:12:04.322Z,136.57
2019-01-14T05:14:32.888Z,130.40
2019-01-14T05:17:01.176Z,129.37
2019-01-14T05:19:29.481Z,115.13
2019-01-14T05:21:58.076Z,120.60
2019-01-14T05:24:26.386Z,128.90
2019-01-14T05:26:54.698Z,122.23
2019-01-14T05:29:22.995Z,93.57
2019-01-14T05:31:51.348Z,98.93
2019-01-14T05:34:19.646Z,97.27
2019-01-14T05:36:47.940Z,117.40
2019-01-14T05:39:16.252Z,100.73
2019-01-14T05:41:44.611Z,110.60
2019-01-14T05:44:12.899Z,138.13
2019-01-14T05:46:41.212Z,123.93
2019-01-14T05:49:09.508Z,133.70
2019-01-14T05:51:37.807Z,128.30
2019-01-14T05:54:06.102Z,118.93
2019-01-14T05:56:34.646Z,105.73
2019-01-14T05:59:03.182Z,103.77
2019-01-14T06:01:31.743Z,100.67
2019-01-14T06:04:00.038Z,106.70
2019-01-14T06:06:28.592Z,99.10
2019-01-14T06:08:56.886Z,82.13
2019-01-14T06:11:25.174Z,93.83
2019-01-14T06:13:53.466Z,113.73
2019-01-14T06:16:21.771Z,150.77
2019-01-14T06:18:50.057Z,113.73
2019-01-14T06:21:18.389Z,123.13
2019-01-14T06:23:46.676Z,125.97
2019-01-14T06:26:14.974Z,134.43
2019-01-14T06:28:43.282Z,140.43
2019-01-14T06:31:11.565Z,153.97
2019-01-14T06:33:40.116Z,137.97
2019-01-14T06:36:08.418Z,150.47
2019-01-14T06:38:36.723Z,141.33
2019-01-14T06:41:05.085Z,151.77
2019-01-14T06:43:33.396Z,144.90
2019-01-14T06:46:01.920Z,154.50
2019-01-14T06:48:31.134Z,154.77
2019-01-14T06:50:59.502Z,145.90
2019-01-14T06:53:27.801Z,137.43
2019-01-14T06:55:56.097Z,135.43
2019-01-14T06:58:24.406Z,148.83
2019-01-14T07:00:52.696Z,148.93
2019-01-14T07:03:21.003Z,150.03
2019-01-14T07:05:49.297Z,140.90
2019-01-14T07:08:17.605Z,154.33
2019-01-14T07:10:45.892Z,153.97
2019-01-14T07:13:14.268Z,137.87
2019-01-14T07:15:42.558Z,146.83
2019-01-14T07:18:10.868Z,140.70
2019-01-14T07:20:39.155Z,166.53
2019-01-14T07:23:08.302Z,150.00
2019-01-14T07:25:36.634Z,149.30
2019-01-14T07:28:05.163Z,156.60
2019-01-14T07:30:33.472Z,155.17
2019-01-14T07:33:01.769Z,146.70
2019-01-14T07:35:30.310Z,155.07
2019-01-14T07:37:58.605Z,142.57
2019-01-14T07:40:26.910Z,139.23
2019-01-14T07:42:55.195Z,126.27
2019-01-14T07:45:23.746Z,134.83
2019-01-14T07:47:52.040Z,129.50
2019-01-14T07:50:20.733Z,136.83
2019-01-14T07:52:49.271Z,132.27
2019-01-14T07:55:17.578Z,131.37
2019-01-14T07:57:45.863Z,114.90
2019-01-14T08:00:19.187Z,135.37
2019-01-14T08:02:47.549Z,134.83
2019-01-14T08:05:15.868Z,139.77
2019-01-14T08:07:44.250Z,142.90
2019-01-14T08:10:12.951Z,138.83
2019-01-14T08:12:41.427Z,128.40
2019-01-14T08:15:15.374Z,132.03
2019-01-14T08:17:43.674Z,130.03
2019-01-14T08:20:12.403Z,132.67
2019-01-14T08:22:40.978Z,135.97
2019-01-14T08:25:11.959Z,130.30
2019-01-14T08:27:40.340Z,129.23
2019-01-14T08:30:11.930Z,123.57
2019-01-14T08:32:40.240Z,118.23
2019-01-14T08:35:08.594Z,140.17
2019-01-14T08:37:37.147Z,136.33
2019-01-14T08:40:08.534Z,136.80
2019-01-14T08:42:37.415Z,143.63
2019-01-14T08:45:07.326Z,140.17
2019-01-14T08:47:36.576Z,125.93
2019-01-14T08:50:08.588Z,140.23
2019-01-14T08:52:36.894Z,135.93
2019-01-14T08:55:05.622Z,137.17
2019-01-14T08:57:33.931Z,139.27
2019-01-14T09:00:02.386Z,138.93
2019-01-14T09:02:30.677Z,149.20
2019-01-14T09:04:58.963Z,144.83
2019-01-14T09:07:27.263Z,128.83
2019-01-14T09:09:55.556Z,136.43
2019-01-14T09:12:23.863Z,113.23
2019-01-14T09:14:52.156Z,112.03
2019-01-14T09:17:20.461Z,125.23
2019-01-14T09:19:48.751Z,127.73
2019-01-14T09:22:17.069Z,125.67
2019-01-14T09:24:45.358Z,131.63
2019-01-14T09:27:13.672Z,130.10
2019-01-14T09:29:41.969Z,117.90
2019-01-14T09:32:10.400Z,108.10
2019-01-14T09:34:39.003Z,88.17
2019-01-14T09:37:07.538Z,107.40
2019-01-14T09:39:35.842Z,103.90
2019-01-14T09:42:04.453Z,126.73
2019-01-14T09:44:32.768Z,143.73
2019-01-14T09:47:01.067Z,156.17
2019-01-14T09:49:29.372Z,156.73
2019-01-14T09:51:57.659Z,154.90
2019-01-14T09:54:25.965Z,138.67
2019-01-14T09:56:54.257Z,109.83
2019-01-14T09:59:22.796Z,102.73
2019-01-14T10:01:51.086Z,119.13
2019-01-14T10:04:19.399Z,113.93
2019-01-14T10:06:47.691Z,105.90
2019-01-14T10:09:15.996Z,95.83
2019-01-14T10:11:44.287Z,106.30
2019-01-14T10:14:12.594Z,88.83
2019-01-14T10:16:41.950Z,80.43
2019-01-14T10:19:10.508Z,62.63
2019-01-14T10:21:38.790Z,70.00
2019-01-14T10:24:07.091Z,58.10
2019-01-14T10:26:35.379Z,53.73
2019-01-14T10:29:03.671Z,57.13
2019-01-14T10:31:32.235Z,56.80
2019-01-14T10:34:00.763Z,53.77
2019-01-14T10:36:29.065Z,55.83
2019-01-14T10:38:57.432Z,60.53
2019-01-14T10:41:25.977Z,62.07
2019-01-14T10:43:54.275Z,64.23
2019-01-14T10:46:22.560Z,57.43
2019-01-14T10:48:50.853Z,55.90
2019-01-14T10:51:19.298Z,58.53
2019-01-14T10:53:47.613Z,58.03
2019-01-14T10:56:16.160Z,59.23
2019-01-14T10:58:44.447Z,55.50
2019-01-14T11:01:13.016Z,53.23
2019-01-14T11:03:41.558Z,30.83
2019-01-14T11:06:10.108Z,30.07
2019-01-14T11:08:38.761Z,39.03
2019-01-14T11:11:07.060Z,44.20
2019-01-14T11:13:35.341Z,34.97
2019-01-14T11:16:03.784Z,30.37
2019-01-14T11:18:32.066Z,23.37
2019-01-14T11:21:00.386Z,28.57
2019-01-14T11:23:28.922Z,63.70
2019-01-14T11:25:57.202Z,32.57
2019-01-14T11:28:25.495Z,28.40
2019-01-14T11:30:53.783Z,32.73
2019-01-14T11:33:22.079Z,32.13
2019-01-14T11:35:50.355Z,31.63
2019-01-14T11:38:42.380Z,34.17
2019-01-14T11:41:10.997Z,36.00
2019-01-14T11:43:39.561Z,41.30
2019-01-14T11:46:07.877Z,45.67
2019-01-14T11:48:36.249Z,46.73
2019-01-14T11:51:04.999Z,38.63
2019-01-14T11:53:33.324Z,35.90
2019-01-14T11:56:01.833Z,34.27
2019-01-14T11:58:30.376Z,35.40
2019-01-14T12:00:58.656Z,32.43
2019-01-14T12:03:27.197Z,39.77
2019-01-14T12:05:55.476Z,30.57
2019-01-14T12:08:24.038Z,26.57
2019-01-14T12:10:52.318Z,23.23
2019-01-14T12:13:20.609Z,23.77
2019-01-14T12:15:48.889Z,22.23
2019-01-14T12:18:17.192Z,21.50
2019-01-14T12:20:45.714Z,26.13
2019-01-14T12:23:14.335Z,31.43
2019-01-14T12:25:42.863Z,35.30
2019-01-14T12:28:11.413Z,30.83
2019-01-14T12:30:41.718Z,32.07
2019-01-14T12:33:10.158Z,30.97
2019-01-14T12:35:38.442Z,29.23
2019-01-14T12:38:06.720Z,27.07
2019-01-14T12:40:35.092Z,21.93
2019-01-14T12:43:03.372Z,21.33
2019-01-14T12:45:31.729Z,22.07
2019-01-14T12:47:59.966Z,23.53
2019-01-14T12:50:28.328Z,22.87
2019-01-14T12:52:56.612Z,25.13
2019-01-14T12:55:24.974Z,23.20
2019-01-14T12:57:53.252Z,21.70
2019-01-14T13:00:31.025Z,21.00
2019-01-14T13:02:59.329Z,19.83
2019-01-14T13:05:28.568Z,20.37
2019-01-14T13:07:56.857Z,21.27
2019-01-14T13:10:25.159Z,23.87
2019-01-14T13:12:53.445Z,24.03
2019-01-14T13:15:24.482Z,22.57
2019-01-14T13:17:52.897Z,20.73
2019-01-14T13:20:22.102Z,20.83
2019-01-14T13:22:50.626Z,22.37
2019-01-14T13:25:18.922Z,22.53
2019-01-14T13:27:47.474Z,23.97
2019-01-14T13:30:26.848Z,32.23
2019-01-14T13:32:55.265Z,32.47
2019-01-14T13:35:23.624Z,44.67
2019-01-14T13:37:52.419Z,48.43
2019-01-14T13:40:20.717Z,57.50
2019-01-14T13:42:49.395Z,55.73
2019-01-14T13:45:19.903Z,47.27
2019-01-14T13:47:48.322Z,47.90
2019-01-14T13:50:19.804Z,50.43
2019-01-14T13:52:48.146Z,56.73
2019-01-14T13:55:16.508Z,56.53
2019-01-14T13:57:44.941Z,59.93
2019-01-14T14:00:21.861Z,62.80
2019-01-14T14:02:50.218Z,56.30
2019-01-14T14:05:18.763Z,56.07
2019-01-14T14:07:47.049Z,53.03
2019-01-14T14:10:26.843Z,51.00
2019-01-14T14:12:55.201Z,46.70
2019-01-14T14:15:24.593Z,48.63
2019-01-14T14:17:52.944Z,49.43
2019-01-14T14:20:21.313Z,55.67
2019-01-14T14:22:49.657Z,52.80
2019-01-14T14:25:17.972Z,47.00
2019-01-14T14:27:46.253Z,42.13
2019-01-14T14:30:23.043Z,34.27
2019-01-14T14:32:51.327Z,27.90
2019-01-14T14:35:19.915Z,26.40
2019-01-14T14:37:48.198Z,28.03
2019-01-14T14:40:16.562Z,32.67
2019-01-14T14:42:44.850Z,25.57
2019-01-14T14:45:14.251Z,27.20
2019-01-14T14:47:42.553Z,27.53
2019-01-14T14:50:18.701Z,29.10
2019-01-14T14:52:47.123Z,35.10
2019-01-14T14:55:15.411Z,36.17
2019-01-14T14:57:44.087Z,35.17
2019-01-14T15:00:14.810Z,39.87
2019-01-14T15:02:43.112Z,39.37
2019-01-14T15:05:12.133Z,39.83
2019-01-14T15:07:40.431Z,41.33
2019-01-14T15:10:11.657Z,42.43
2019-01-14T15:12:39.947Z,49.87
2019-01-14T15:15:10.884Z,41.57
2019-01-14T15:17:39.184Z,40.00
2019-01-14T15:20:13.106Z,41.47
2019-01-14T15:22:41.401Z,41.97
2019-01-14T15:25:09.681Z,44.13
2019-01-14T15:27:37.986Z,45.03
2019-01-14T15:30:12.459Z,47.33
2019-01-14T15:32:40.754Z,41.73
2019-01-14T15:35:09.106Z,40.03
2019-01-14T15:37:37.642Z,36.70
2019-01-14T15:40:09.570Z,34.30
2019-01-14T15:42:37.868Z,35.37
2019-01-14T15:45:09.707Z,35.43
2019-01-14T15:47:38.004Z,32.43
2019-01-14T15:50:08.925Z,33.37
2019-01-14T15:52:37.298Z,31.93
2019-01-14T15:55:08.821Z,33.73
2019-01-14T15:57:37.192Z,31.63
2019-01-14T16:00:08.724Z,33.70
2019-01-14T16:02:37.082Z,35.13
2019-01-14T16:05:06.471Z,35.10
2019-01-14T16:07:35.077Z,34.70
2019-01-14T16:10:10.614Z,34.90
2019-01-14T16:12:34.441Z,34.17
2019-01-14T16:15:02.811Z,36.83
2019-01-14T16:17:31.098Z,35.53
2019-01-14T16:19:59.473Z,35.90
2019-01-14T16:22:27.758Z,34.37
2019-01-14T16:24:56.051Z,33.97
2019-01-14T16:27:24.592Z,33.80
2019-01-14T16:29:53.150Z,36.43
2019-01-14T16:32:21.689Z,33.13
2019-01-14T16:34:50.222Z,32.30
2019-01-14T16:37:20.219Z,34.13
2019-01-14T16:39:48.552Z,34.77
2019-01-14T16:42:16.836Z,31.27
2019-01-14T16:44:45.447Z,33.37
2019-01-14T16:47:13.724Z,32.40
2019-01-14T16:49:42.023Z,31.67
2019-01-14T16:52:10.309Z,32.57
2019-01-14T16:54:38.622Z,29.43
2019-01-14T16:57:07.907Z,29.07
2019-01-14T16:59:36.200Z,30.63
2019-01-14T17:02:04.468Z,31.73
2019-01-14T17:04:32.765Z,32.27
2019-01-14T17:07:01.046Z,31.40
2019-01-14T17:09:29.396Z,33.20
2019-01-14T17:11:57.946Z,33.63
2019-01-14T17:14:26.230Z,30.80
2019-01-14T17:16:54.522Z,31.20
2019-01-14T17:19:24.683Z,32.93
2019-01-14T17:21:53.229Z,29.73
2019-01-14T17:24:21.515Z,30.67
2019-01-14T17:26:49.813Z,30.10
2019-01-14T17:29:18.098Z,30.03
2019-01-14T17:31:46.396Z,30.57
2019-01-14T17:34:14.931Z,31.80
2019-01-14T17:36:43.304Z,29.10
2019-01-14T17:39:11.825Z,33.40
2019-01-14T17:41:41.098Z,26.67
2019-01-14T17:44:09.623Z,26.73
2019-01-14T17:46:38.174Z,24.97
2019-01-14T17:49:06.449Z,25.13
2019-01-14T17:51:35.002Z,24.40
2019-01-14T17:54:03.534Z,33.73
2019-01-14T17:56:32.090Z,25.80
2019-01-14T17:59:00.398Z,26.00
2019-01-14T18:01:28.693Z,25.20
2019-01-14T18:03:56.995Z,25.33
2019-01-14T18:06:25.282Z,26.60
2019-01-14T18:08:53.581Z,27.03
2019-01-14T18:11:21.869Z,25.77
2019-01-14T18:13:50.179Z,23.63
2019-01-14T18:16:18.455Z,26.23
2019-01-14T18:18:46.763Z,24.40
2019-01-14T18:21:15.040Z,22.67
2019-01-14T18:23:43.590Z,25.53
2019-01-14T18:26:11.877Z,24.27
2019-01-14T18:28:40.177Z,24.80
2019-01-14T18:31:08.452Z,26.40
2019-01-14T18:33:36.765Z,25.23
2019-01-14T18:36:05.407Z,24.30
2019-01-14T18:38:33.705Z,25.60
2019-01-14T18:41:01.995Z,23.57
2019-01-14T18:43:30.293Z,23.50
2019-01-14T18:45:58.646Z,24.47
2019-01-14T18:48:26.930Z,25.33
2019-01-14T18:50:55.477Z,25.00
2019-01-14T18:53:23.760Z,24.67
2019-01-14T18:55:52.064Z,26.07
2019-01-14T18:58:20.603Z,24.63
2019-01-14T19:00:48.891Z,25.43
2019-01-14T19:03:17.242Z,24.90
2019-01-14T19:05:45.547Z,38.27
2019-01-14T19:08:13.844Z,29.00
2019-01-14T19:10:42.373Z,27.50
2019-01-14T19:13:10.658Z,28.27
2019-01-14T19:15:39.199Z,28.63
2019-01-14T19:18:07.491Z,26.40
2019-01-14T19:20:35.795Z,26.63
2019-01-14T19:23:04.293Z,27.40
2019-01-14T19:25:32.647Z,24.47
2019-01-14T19:28:00.993Z,23.83
2019-01-14T19:30:29.546Z,26.43
2019-01-14T19:32:58.712Z,25.47
2019-01-14T19:35:27.011Z,26.47
2019-01-14T19:37:55.307Z,25.77
2019-01-14T19:40:23.658Z,26.67
2019-01-14T19:42:52.404Z,26.30
2019-01-14T19:45:20.753Z,25.80
2019-01-14T19:47:49.045Z,24.73
2019-01-14T19:50:19.177Z,25.53
2019-01-14T19:52:47.548Z,24.27
2019-01-14T19:55:15.897Z,25.83
2019-01-14T19:57:44.334Z,27.53
2019-01-14T20:00:18.672Z,23.37
2019-01-14T20:02:46.974Z,25.03
2019-01-14T20:05:15.670Z,24.13
2019-01-14T20:07:43.966Z,24.13
2019-01-14T20:10:15.149Z,25.40
2019-01-14T20:12:43.766Z,26.13
2019-01-14T20:15:15.052Z,28.10
2019-01-14T20:17:43.358Z,29.13
2019-01-14T20:20:11.876Z,26.30
2019-01-14T20:22:40.425Z,28.17
2019-01-14T20:25:10.750Z,29.10
2019-01-14T20:27:39.360Z,28.00
2019-01-14T20:30:16.593Z,27.27
2019-01-14T20:32:44.972Z,30.50
2019-01-14T20:35:13.577Z,32.27
2019-01-14T20:37:41.868Z,28.40
2019-01-14T20:40:12.731Z,30.20
2019-01-14T20:42:41.014Z,30.30
2019-01-14T20:45:11.560Z,29.23
2019-01-14T20:47:40.163Z,28.83
2019-01-14T20:50:11.214Z,30.53
2019-01-14T20:52:39.491Z,30.77
2019-01-14T20:55:08.606Z,32.93
2019-01-14T20:57:36.904Z,33.30
2019-01-14T21:00:20.767Z,31.77
2019-01-14T21:02:49.050Z,29.80
2019-01-14T21:05:18.196Z,29.57
2019-01-14T21:07:46.485Z,27.77
2019-01-14T21:10:15.820Z,28.83
2019-01-14T21:12:44.169Z,30.97
2019-01-14T21:15:12.831Z,29.27
2019-01-14T21:17:41.124Z,30.70
2019-01-14T21:20:20.391Z,29.93
2019-01-14T21:22:48.846Z,29.00
2019-01-14T21:25:17.148Z,28.47
2019-01-14T21:27:45.686Z,31.07
2019-01-14T21:30:16.707Z,28.07
2019-01-14T21:32:45.073Z,29.53
2019-01-14T21:35:13.743Z,30.30
2019-01-14T21:37:43.660Z,30.63
2019-01-14T21:40:13.467Z,30.67
2019-01-14T21:42:41.765Z,31.77
2019-01-14T21:45:12.289Z,30.00
2019-01-14T21:47:40.916Z,32.03
2019-01-14T21:50:14.723Z,29.83
2019-01-14T21:52:43.088Z,30.30
2019-01-14T21:55:14.051Z,30.73
2019-01-14T21:57:42.599Z,27.07
2019-01-14T22:00:13.624Z,31.30
2019-01-14T22:02:41.923Z,28.63
2019-01-14T22:05:10.210Z,29.90
2019-01-14T22:07:38.520Z,28.80
2019-01-14T22:10:13.280Z,29.63
2019-01-14T22:12:41.818Z,29.17
2019-01-14T22:15:11.145Z,30.70
2019-01-14T22:17:39.434Z,28.80
2019-01-14T22:20:13.391Z,29.87
2019-01-14T22:22:41.684Z,29.23
2019-01-14T22:25:10.048Z,27.83
2019-01-14T22:27:38.333Z,29.93
2019-01-14T22:30:15.415Z,31.23
2019-01-14T22:32:43.957Z,28.93
2019-01-14T22:35:12.330Z,31.50
2019-01-14T22:37:40.615Z,31.27
2019-01-14T22:40:11.649Z,31.53
2019-01-14T22:42:40.005Z,29.53
2019-01-14T22:45:10.195Z,29.10
2019-01-14T22:47:38.800Z,29.93
2019-01-14T22:50:10.274Z,31.97
2019-01-14T22:52:38.554Z,32.47
2019-01-14T22:55:08.393Z,29.73
2019-01-14T22:57:36.741Z,31.63
2019-01-14T23:00:12.597Z,30.83
2019-01-14T23:02:41.139Z,27.77
2019-01-14T23:05:09.568Z,31.47
2019-01-14T23:07:37.800Z,33.90
2019-01-14T23:10:06.537Z,35.73
2019-01-14T23:12:34.826Z,30.63
2019-01-14T23:15:03.760Z,34.67
2019-01-14T23:17:32.050Z,32.57
2019-01-14T23:20:00.596Z,32.50
2019-01-14T23:22:28.873Z,37.20
2019-01-14T23:24:57.412Z,32.50
2019-01-14T23:27:25.700Z,35.37
2019-01-14T23:29:54.007Z,40.30
2019-01-14T23:32:22.285Z,33.27
2019-01-14T23:34:50.565Z,34.00
2019-01-14T23:37:19.107Z,33.73
2019-01-14T23:39:47.392Z,33.47
2019-01-14T23:42:15.944Z,37.77
2019-01-14T23:44:44.224Z,34.80
2019-01-14T23:47:12.844Z,36.57
2019-01-14T23:49:41.131Z,38.10
2019-01-14T23:52:09.432Z,39.57
2019-01-14T23:54:37.963Z,37.40
2019-01-14T23:57:06.265Z,37.50
2019-01-14T23:59:34.790Z,35.10
